createdAt,value
2018-11-03T00:00:20.292Z,98424.69
2018-11-03T00:02:30.285Z,98421.41
2018-11-03T00:04:40.287Z,98427.27
2018-11-03T00:06:50.365Z,98427.20
2018-11-03T00:09:03.628Z,98429.41
2018-11-03T00:11:14.292Z,98438.10
2018-11-03T00:13:24.389Z,98441.20
2018-11-03T00:15:33.803Z,98450.40
2018-11-03T00:17:43.728Z,98451.25
2018-11-03T00:19:53.607Z,98452.09
2018-11-03T00:22:02.899Z,98449.42
2018-11-03T00:24:11.249Z,97886.00
2018-11-03T00:26:20.823Z,98456.45
2018-11-03T00:28:30.286Z,98449.13
2018-11-03T00:30:39.868Z,98452.82
2018-11-03T00:32:51.359Z,98455.98
2018-11-03T00:35:01.287Z,98460.95
2018-11-03T00:37:11.452Z,98457.19
2018-11-03T00:39:21.291Z,98470.45
2018-11-03T00:41:31.746Z,98464.49
2018-11-03T00:43:41.382Z,98474.33
2018-11-03T00:45:50.810Z,98472.73
2018-11-03T00:48:00.552Z,98464.88
2018-11-03T00:50:11.101Z,98466.97
2018-11-03T00:52:20.920Z,98466.80
2018-11-03T00:54:29.249Z,98470.63
2018-11-03T00:56:40.661Z,98490.98
2018-11-03T00:58:50.428Z,98474.98
2018-11-03T01:01:00.287Z,98469.84
2018-11-03T01:03:09.879Z,98479.94
2018-11-03T01:05:20.473Z,98478.41
2018-11-03T01:07:30.282Z,98482.52
2018-11-03T01:09:40.285Z,98478.09
2018-11-03T01:11:50.654Z,98482.98
2018-11-03T01:14:00.719Z,98482.59
2018-11-03T01:16:10.412Z,98490.92
2018-11-03T01:18:19.821Z,98489.42
2018-11-03T01:20:27.854Z,98492.73
2018-11-03T01:22:37.396Z,98485.98
2018-11-03T01:24:47.275Z,98496.11
2018-11-03T01:26:57.284Z,98490.38
2018-11-03T01:29:07.282Z,98488.70
2018-11-03T01:31:17.730Z,98496.72
2018-11-03T01:33:27.378Z,98496.91
2018-11-03T01:35:37.084Z,98498.84
2018-11-03T01:37:46.722Z,98504.49
2018-11-03T01:39:56.416Z,98502.39
2018-11-03T01:42:07.283Z,98500.89
2018-11-03T01:44:16.740Z,98513.30
2018-11-03T01:46:26.281Z,98505.34
2018-11-03T01:48:35.881Z,98511.00
2018-11-03T01:50:45.736Z,98514.99
2018-11-03T01:52:55.743Z,98514.91
2018-11-03T01:55:05.288Z,98514.81
2018-11-03T01:57:15.109Z,98517.33
2018-11-03T01:59:26.771Z,98519.19
2018-11-03T02:01:36.628Z,98516.23
2018-11-03T02:03:46.548Z,98513.66
2018-11-03T02:05:56.601Z,98516.41
2018-11-03T02:08:06.439Z,98517.50
2018-11-03T02:10:16.287Z,98509.52
2018-11-03T02:12:25.806Z,98506.03
2018-11-03T02:14:36.107Z,98520.91
2018-11-03T02:16:45.540Z,98518.88
2018-11-03T02:18:55.390Z,98516.16
2018-11-03T02:21:05.541Z,98520.86
2018-11-03T02:23:14.802Z,98526.36
2018-11-03T02:25:24.631Z,98521.48
2018-11-03T02:27:36.820Z,98522.23
2018-11-03T02:29:45.254Z,98530.16
2018-11-03T02:31:54.844Z,98533.23
2018-11-03T02:34:04.584Z,98528.02
2018-11-03T02:36:14.295Z,98523.75
2018-11-03T02:38:24.674Z,98520.11
2018-11-03T02:40:34.286Z,98523.41
2018-11-03T02:42:44.748Z,98529.50
2018-11-03T02:44:54.611Z,98523.63
2018-11-03T02:47:04.896Z,98528.13
2018-11-03T02:49:14.678Z,98533.02
2018-11-03T02:51:24.711Z,98529.16
2018-11-03T02:53:34.403Z,98533.66
2018-11-03T02:55:44.282Z,98522.74
2018-11-03T02:57:54.285Z,98519.58
2018-11-03T03:00:03.760Z,98525.11
2018-11-03T03:04:32.280Z,98528.44
2018-11-03T03:06:42.530Z,98538.30
2018-11-03T03:08:52.279Z,98535.38
2018-11-03T03:11:01.818Z,98540.80
2018-11-03T03:13:11.701Z,98543.33
2018-11-03T03:15:22.287Z,98538.05
2018-11-03T03:17:32.769Z,98541.67
2018-11-03T03:19:42.285Z,98537.47
2018-11-03T03:21:51.705Z,98548.57
2018-11-03T03:24:01.529Z,98551.13
2018-11-03T03:26:11.276Z,98545.85
2018-11-03T03:28:20.748Z,98548.84
2018-11-03T03:30:30.368Z,98554.70
2018-11-03T03:32:40.291Z,98553.09
2018-11-03T03:34:50.061Z,98545.73
2018-11-03T03:36:59.729Z,98544.84
2018-11-03T03:39:12.832Z,98541.00
2018-11-03T03:41:22.628Z,98546.59
2018-11-03T03:43:32.451Z,98545.11
2018-11-03T03:45:42.283Z,98546.65
2018-11-03T03:47:51.847Z,98543.24
2018-11-03T03:50:02.105Z,98552.82
2018-11-03T03:52:11.715Z,98546.19
2018-11-03T03:54:20.792Z,98550.11
2018-11-03T03:56:30.344Z,98550.91
2018-11-03T03:58:39.819Z,98548.64
2018-11-03T04:00:49.291Z,98538.37
2018-11-03T04:02:59.100Z,98535.98
2018-11-03T04:05:08.826Z,98532.91
2018-11-03T04:07:18.876Z,98535.56
2018-11-03T04:09:28.700Z,98528.86
2018-11-03T04:11:39.279Z,98530.92
2018-11-03T04:13:48.845Z,98534.16
2018-11-03T04:15:56.706Z,98534.83
2018-11-03T04:18:06.727Z,98524.77
2018-11-03T04:20:16.598Z,98531.19
2018-11-03T04:22:26.293Z,98528.20
2018-11-03T04:24:35.735Z,98525.22
2018-11-03T04:26:45.280Z,98530.57
2018-11-03T04:28:54.712Z,98533.86
2018-11-03T04:31:04.109Z,98529.10
2018-11-03T04:33:13.752Z,98528.33
2018-11-03T04:35:23.803Z,98525.95
2018-11-03T04:37:34.292Z,98528.91
2018-11-03T04:39:44.285Z,98520.41
2018-11-03T04:41:54.641Z,98534.48
2018-11-03T04:44:04.644Z,98532.55
2018-11-03T04:46:14.279Z,98530.55
2018-11-03T04:48:24.612Z,98529.41
2018-11-03T04:50:34.285Z,98527.62
2018-11-03T04:52:44.285Z,98521.26
2018-11-03T04:54:54.345Z,98534.84
2018-11-03T04:57:03.751Z,98533.59
2018-11-03T04:59:14.378Z,98529.01
2018-11-03T05:01:23.792Z,98524.71
2018-11-03T05:03:33.730Z,98524.52
2018-11-03T05:05:43.576Z,98528.89
2018-11-03T05:07:52.785Z,98526.78
2018-11-03T05:10:02.348Z,98534.77
2018-11-03T05:12:12.311Z,98540.42
2018-11-03T05:14:21.700Z,98437.86
2018-11-03T05:16:31.705Z,98545.70
2018-11-03T05:18:41.282Z,98551.28
2018-11-03T05:21:49.839Z,98549.78
2018-11-03T05:23:59.714Z,98552.28
2018-11-03T05:26:09.710Z,98554.39
2018-11-03T05:28:19.812Z,98541.47
2018-11-03T05:30:28.020Z,98550.66
2018-11-03T05:32:37.717Z,98544.23
2018-11-03T05:34:47.286Z,98555.13
2018-11-03T05:36:57.289Z,98549.05
2018-11-03T05:39:07.112Z,98555.89
2018-11-03T05:41:17.291Z,98555.66
2018-11-03T05:43:26.767Z,98558.28
2018-11-03T05:45:36.615Z,98556.85
2018-11-03T05:47:46.286Z,98554.83
2018-11-03T05:49:55.747Z,98559.22
2018-11-03T05:52:05.285Z,98557.09
2018-11-03T05:54:15.286Z,98563.22
2018-11-03T05:56:24.785Z,98565.47
2018-11-03T05:58:34.289Z,98568.42
2018-11-03T06:00:44.289Z,98571.30
2018-11-03T06:02:54.281Z,98578.02
2018-11-03T06:05:03.861Z,98575.19
2018-11-03T06:07:13.709Z,98581.92
2018-11-03T06:09:23.726Z,98579.55
2018-11-03T06:11:33.723Z,98587.68
2018-11-03T06:13:43.287Z,98587.12
2018-11-03T06:15:53.387Z,98590.05
2018-11-03T06:18:02.848Z,98595.31
2018-11-03T06:20:12.822Z,98600.70
2018-11-03T06:22:22.314Z,98601.63
2018-11-03T06:24:32.289Z,98689.70
2018-11-03T06:26:42.371Z,98604.64
2018-11-03T06:28:51.721Z,98610.02
2018-11-03T06:31:01.304Z,98596.80
2018-11-03T06:33:11.286Z,98603.92
2018-11-03T06:35:20.930Z,98597.45
2018-11-03T06:37:30.726Z,98606.50
2018-11-03T06:39:41.284Z,98610.73
2018-11-03T06:41:51.279Z,98611.98
2018-11-03T06:44:01.412Z,98601.69
2018-11-03T06:46:10.917Z,98619.03
2018-11-03T06:48:18.701Z,98614.50
2018-11-03T06:50:28.801Z,98619.06
2018-11-03T06:52:36.633Z,98634.84
2018-11-03T06:54:46.678Z,98616.23
2018-11-03T06:56:56.385Z,98615.27
2018-11-03T06:59:06.081Z,98617.39
2018-11-03T07:01:15.765Z,98611.94
2018-11-03T07:03:25.389Z,97877.31
2018-11-03T07:05:34.756Z,98605.70
2018-11-03T07:07:44.553Z,98621.47
2018-11-03T07:09:55.278Z,98617.20
2018-11-03T07:12:05.289Z,98622.53
2018-11-03T07:14:15.340Z,98620.66
2018-11-03T07:16:25.277Z,98631.72
2018-11-03T07:18:34.805Z,98623.85
2018-11-03T07:20:44.675Z,98627.42
2018-11-03T07:22:54.404Z,98624.78
2018-11-03T07:25:04.285Z,98628.59
2018-11-03T07:27:13.754Z,98623.44
2018-11-03T07:29:23.413Z,98629.66
2018-11-03T07:31:32.865Z,98638.86
2018-11-03T07:33:42.451Z,98637.61
2018-11-03T07:35:51.813Z,98644.62
2018-11-03T07:38:01.645Z,98647.59
2018-11-03T07:40:13.665Z,98647.14
2018-11-03T07:42:23.645Z,98645.45
2018-11-03T07:44:33.286Z,98645.68
2018-11-03T07:46:43.287Z,98648.61
2018-11-03T07:48:52.887Z,98652.02
2018-11-03T07:51:02.720Z,98653.92
2018-11-03T07:53:12.623Z,98658.53
2018-11-03T07:55:22.559Z,98662.53
2018-11-03T07:57:32.287Z,98658.48
2018-11-03T07:59:41.861Z,98664.79
2018-11-03T08:01:50.843Z,98800.11
2018-11-03T08:03:58.645Z,98668.01
2018-11-03T08:06:08.365Z,98665.98
2018-11-03T08:08:18.364Z,98669.27
2018-11-03T08:10:27.908Z,98743.34
2018-11-03T08:12:37.725Z,98668.19
2018-11-03T08:14:47.765Z,98673.88
2018-11-03T08:16:57.617Z,98675.25
2018-11-03T08:19:07.290Z,98667.65
2018-11-03T08:21:16.858Z,98661.02
2018-11-03T08:23:26.735Z,98663.70
2018-11-03T08:25:36.768Z,98667.92
2018-11-03T08:27:46.540Z,98671.02
2018-11-03T08:29:56.396Z,98677.19
2018-11-03T08:32:06.492Z,98682.89
2018-11-03T08:34:16.548Z,98685.16
2018-11-03T08:36:25.924Z,98697.22
2018-11-03T08:39:18.157Z,98704.34
2018-11-03T08:41:27.731Z,98703.17
2018-11-03T08:43:37.416Z,98712.59
2018-11-03T08:45:46.839Z,98716.66
2018-11-03T08:47:56.740Z,98708.05
2018-11-03T08:50:07.081Z,98715.92
2018-11-03T08:52:16.720Z,98717.94
2018-11-03T08:54:26.778Z,98715.94
2018-11-03T08:56:36.817Z,98723.33
2018-11-03T08:58:46.738Z,98722.30
2018-11-03T09:00:56.714Z,98729.71
2018-11-03T09:03:06.374Z,98740.51
2018-11-03T09:05:15.776Z,98745.71
2018-11-03T09:07:25.718Z,98736.28
2018-11-03T09:09:34.907Z,98748.64
2018-11-03T09:12:40.574Z,98751.59
2018-11-03T09:14:50.715Z,98744.55
2018-11-03T09:17:00.557Z,98748.20
2018-11-03T09:19:10.692Z,98744.92
2018-11-03T09:21:20.702Z,98748.09
2018-11-03T09:23:30.723Z,98739.39
2018-11-03T09:25:40.835Z,98727.81
2018-11-03T09:27:50.710Z,98739.16
2018-11-03T09:30:00.439Z,98733.73
2018-11-03T09:32:10.295Z,98724.48
2018-11-03T09:34:20.291Z,97593.31
2018-11-03T09:36:29.712Z,98737.34
2018-11-03T09:38:39.326Z,98750.51
2018-11-03T09:40:48.957Z,98749.02
2018-11-03T09:42:57.326Z,98753.06
2018-11-03T09:45:07.441Z,98757.13
2018-11-03T09:47:17.112Z,98758.48
2018-11-03T09:49:27.536Z,98761.17
2018-11-03T09:51:37.285Z,98754.34
2018-11-03T09:53:47.286Z,98757.03
2018-11-03T09:55:56.796Z,98768.28
2018-11-03T09:58:07.285Z,98770.11
2018-11-03T10:00:19.720Z,98777.56
2018-11-03T10:02:29.286Z,98778.84
2018-11-03T10:04:39.283Z,98779.59
2018-11-03T10:06:49.467Z,98779.80
2018-11-03T10:08:58.829Z,98780.69
2018-11-03T10:11:08.797Z,98788.94
2018-11-03T10:13:18.719Z,98803.48
2018-11-03T10:15:28.804Z,98809.36
2018-11-03T10:17:38.390Z,98812.14
2018-11-03T10:19:48.439Z,98813.13
2018-11-03T10:21:58.321Z,98825.47
2018-11-03T10:24:08.282Z,98832.64
2018-11-03T10:26:18.281Z,98827.77
2018-11-03T10:28:27.994Z,98836.71
2018-11-03T10:30:37.509Z,98833.75
2018-11-03T10:32:47.691Z,98833.38
2018-11-03T10:34:57.274Z,98832.27
2018-11-03T10:37:07.277Z,98834.14
2018-11-03T10:39:16.778Z,98832.52
2018-11-03T10:41:26.281Z,98831.38
2018-11-03T10:43:36.088Z,98829.31
2018-11-03T10:45:45.746Z,98828.53
2018-11-03T10:47:55.364Z,98830.61
2018-11-03T10:50:04.746Z,98836.89
2018-11-03T10:52:15.274Z,98826.33
2018-11-03T10:54:24.815Z,98833.41
2018-11-03T10:56:34.747Z,98832.11
2018-11-03T10:58:44.510Z,98835.09
2018-11-03T11:00:58.272Z,98832.12
2018-11-03T11:03:12.276Z,98820.95
2018-11-03T11:05:26.408Z,98822.84
2018-11-03T11:07:40.374Z,98815.34
2018-11-03T11:09:54.779Z,98819.06
2018-11-03T11:12:08.702Z,98827.79
2018-11-03T11:14:18.828Z,98841.02
2018-11-03T11:16:28.634Z,98847.41
2018-11-03T11:18:38.279Z,98846.37
2018-11-03T11:20:48.686Z,98839.81
2018-11-03T11:22:58.537Z,98839.25
2018-11-03T11:25:09.409Z,98847.17
2018-11-03T11:27:19.564Z,98864.09
2018-11-03T11:29:29.374Z,98868.80
2018-11-03T11:31:39.378Z,98881.50
2018-11-03T11:33:49.404Z,98880.67
2018-11-03T11:35:59.708Z,98878.51
2018-11-03T11:38:10.712Z,98881.53
2018-11-03T11:40:21.097Z,98884.98
2018-11-03T11:42:31.034Z,98891.48
2018-11-03T11:44:41.277Z,98894.53
2018-11-03T11:46:51.102Z,98911.80
2018-11-03T11:49:00.900Z,98901.92
2018-11-03T11:51:10.799Z,98913.38
2018-11-03T11:53:20.445Z,98919.73
2018-11-03T11:55:30.322Z,98915.08
2018-11-03T11:57:40.285Z,98936.52
2018-11-03T11:59:49.830Z,98931.87
2018-11-03T12:01:59.716Z,98934.74
2018-11-03T12:04:09.780Z,98940.59
2018-11-03T12:06:19.280Z,98935.45
2018-11-03T12:08:29.096Z,98943.45
2018-11-03T12:10:38.702Z,98932.84
2018-11-03T12:12:48.513Z,98938.14
2018-11-03T12:14:58.397Z,98934.95
2018-11-03T12:17:08.686Z,98941.72
2018-11-03T12:19:18.277Z,98950.11
2018-11-03T12:21:28.106Z,98957.81
2018-11-03T12:23:38.274Z,98953.87
2018-11-03T12:25:48.825Z,98958.81
2018-11-03T12:27:58.884Z,98969.75
2018-11-03T12:30:09.395Z,98981.59
2018-11-03T12:32:19.281Z,98981.64
2018-11-03T12:34:29.284Z,98984.95
2018-11-03T12:36:39.296Z,98980.63
2018-11-03T12:38:49.279Z,98972.17
2018-11-03T12:40:58.909Z,98966.30
2018-11-03T12:43:07.266Z,98981.20
2018-11-03T12:45:17.370Z,98994.91
2018-11-03T12:47:27.277Z,98994.82
2018-11-03T12:49:37.555Z,98981.75
2018-11-03T12:51:47.277Z,98989.73
2018-11-03T12:53:57.277Z,98990.21
2018-11-03T12:56:07.508Z,98994.52
2018-11-03T12:58:17.324Z,98979.80
2018-11-03T13:00:26.911Z,98984.12
2018-11-03T13:02:36.280Z,98995.98
2018-11-03T13:04:46.096Z,98987.95
2018-11-03T13:06:56.775Z,98982.05
2018-11-03T13:09:07.613Z,99002.78
2018-11-03T13:11:17.489Z,99000.39
2018-11-03T13:13:27.278Z,99023.21
2018-11-03T13:15:37.283Z,98995.45
2018-11-03T13:17:46.817Z,98998.53
2018-11-03T13:19:57.545Z,99009.59
2018-11-03T13:22:06.781Z,99020.95
2018-11-03T13:24:16.380Z,99011.86
2018-11-03T13:26:25.734Z,99016.13
2018-11-03T13:28:34.850Z,99026.89
2018-11-03T13:30:44.268Z,99034.34
2018-11-03T13:32:54.272Z,99042.13
2018-11-03T13:35:04.358Z,99047.52
2018-11-03T13:37:15.338Z,99055.29
2018-11-03T13:39:24.766Z,99054.99
2018-11-03T13:41:34.720Z,99062.63
2018-11-03T13:43:44.406Z,99063.39
2018-11-03T13:45:54.270Z,99068.88
2018-11-03T13:48:03.783Z,99069.22
2018-11-03T13:50:16.694Z,99068.09
2018-11-03T13:52:26.525Z,99075.42
2018-11-03T13:54:36.731Z,99070.76
2018-11-03T13:56:46.287Z,99075.00
2018-11-03T13:58:56.265Z,99072.01
2018-11-03T14:01:06.342Z,99073.38
2018-11-03T14:03:16.431Z,99076.44
2018-11-03T14:05:26.274Z,99074.68
2018-11-03T14:07:36.295Z,99085.75
2018-11-03T14:09:45.870Z,99094.70
2018-11-03T14:11:55.827Z,99104.97
2018-11-03T14:14:05.680Z,99116.12
2018-11-03T14:16:15.718Z,99123.21
2018-11-03T14:18:25.560Z,99130.80
2018-11-03T14:20:35.272Z,99139.39
2018-11-03T14:22:45.937Z,99147.06
2018-11-03T14:24:56.626Z,99146.64
2018-11-03T14:27:06.573Z,99148.10
2018-11-03T14:29:16.670Z,99150.96
2018-11-03T14:31:26.770Z,99155.48
2018-11-03T14:33:36.709Z,99162.06
2018-11-03T14:35:46.354Z,99154.73
2018-11-03T14:37:55.865Z,99224.23
2018-11-03T14:40:06.275Z,99181.09
2018-11-03T14:42:16.537Z,99174.80
2018-11-03T14:44:26.311Z,99183.35
2018-11-03T14:46:36.273Z,99182.16
2018-11-03T14:53:21.435Z,99186.70
2018-11-03T14:55:31.279Z,99180.39
2018-11-03T14:57:41.530Z,99178.96
2018-11-03T14:59:51.684Z,99178.67
2018-11-03T15:02:01.835Z,99179.59
2018-11-03T15:04:12.643Z,99185.92
2018-11-03T15:06:23.371Z,99186.22
2018-11-03T15:08:33.184Z,99175.97
2018-11-03T15:10:43.789Z,99183.50
2018-11-03T15:12:53.696Z,99183.73
2018-11-03T15:15:03.407Z,99191.59
2018-11-03T15:17:13.447Z,99196.64
2018-11-03T15:19:24.273Z,99204.77
2018-11-03T15:21:33.839Z,99201.23
2018-11-03T15:23:43.274Z,99198.83
2018-11-03T15:25:54.280Z,99203.52
2018-11-03T15:28:03.886Z,99216.33
2018-11-03T15:30:15.699Z,99220.83
2018-11-03T15:34:32.854Z,99226.23
2018-11-03T15:36:42.399Z,99236.72
2018-11-03T15:43:25.793Z,99227.59
2018-11-03T15:45:35.400Z,99232.95
2018-11-03T15:47:45.639Z,99237.63
2018-11-03T15:49:55.282Z,99227.11
2018-11-03T15:52:05.275Z,99241.85
2018-11-03T15:54:15.278Z,99235.73
2018-11-03T15:56:25.636Z,99240.77
2018-11-03T15:58:35.699Z,99239.45
2018-11-03T16:00:45.396Z,99247.02
2018-11-03T16:02:55.278Z,99247.48
2018-11-03T16:05:05.279Z,99256.90
2018-11-03T16:07:14.992Z,99253.89
2018-11-03T16:09:24.769Z,99256.41
2018-11-03T16:11:34.278Z,99254.02
2018-11-03T16:13:44.648Z,99260.91
2018-11-03T16:15:54.391Z,99257.52
2018-11-03T16:18:04.411Z,99260.80
2018-11-03T16:20:14.883Z,99270.23
2018-11-03T16:22:24.884Z,99266.06
2018-11-03T16:24:32.824Z,99273.76
2018-11-03T16:26:42.278Z,99263.64
2018-11-03T16:28:52.403Z,99273.54
2018-11-03T16:31:02.403Z,99274.64
2018-11-03T16:33:12.543Z,99265.50
2018-11-03T16:35:22.296Z,99274.34
2018-11-03T16:37:32.369Z,99265.66
2018-11-03T16:39:42.103Z,99279.64
2018-11-03T16:41:52.709Z,99268.59
2018-11-03T16:44:02.409Z,99266.33
2018-11-03T16:46:12.854Z,99270.05
2018-11-03T16:48:22.764Z,99269.92
2018-11-03T16:50:32.714Z,99274.89
2018-11-03T16:52:42.804Z,99279.30
2018-11-03T16:54:52.690Z,99275.94
2018-11-03T16:57:02.276Z,99275.78
2018-11-03T16:59:11.724Z,99278.36
2018-11-03T17:01:21.553Z,99284.08
2018-11-03T17:03:32.106Z,99280.87
2018-11-03T17:05:41.716Z,99280.30
2018-11-03T17:07:51.721Z,99287.94
2018-11-03T17:10:01.283Z,99291.60
2018-11-03T17:12:10.762Z,99286.03
2018-11-03T17:14:20.563Z,99279.64
2018-11-03T17:16:30.081Z,99281.83
2018-11-03T17:18:40.381Z,99287.27
2018-11-03T17:22:39.094Z,99275.24
2018-11-03T17:24:48.846Z,99273.29
2018-11-03T17:26:58.826Z,99268.58
2018-11-03T17:29:09.717Z,99265.86
2018-11-03T17:31:19.391Z,99271.31
2018-11-03T17:33:29.282Z,99268.67
2018-11-03T17:35:38.765Z,99259.66
2018-11-03T17:37:48.724Z,99267.52
2018-11-03T17:39:58.649Z,99267.85
2018-11-03T17:42:08.521Z,99270.39
2018-11-03T17:44:18.826Z,99262.16
2018-11-03T17:46:28.407Z,99265.88
2018-11-03T17:48:44.706Z,99260.36
2018-11-03T17:50:54.274Z,99263.84
2018-11-03T17:53:04.386Z,99268.80
2018-11-03T17:55:14.780Z,99259.73
2018-11-03T17:57:24.706Z,99253.89
2018-11-03T17:59:34.276Z,99242.31
2018-11-03T18:01:44.097Z,99250.12
2018-11-03T18:03:53.400Z,99255.49
2018-11-03T18:06:03.292Z,99251.75
2018-11-03T18:08:13.659Z,99249.17
2018-11-03T18:10:23.850Z,99246.73
2018-11-03T18:12:33.349Z,99246.19
2018-11-03T18:14:43.712Z,99182.05
2018-11-03T18:16:53.708Z,99254.45
2018-11-03T18:19:03.842Z,99259.91
2018-11-03T18:21:13.790Z,99246.59
2018-11-03T18:23:23.805Z,99241.00
2018-11-03T18:25:33.283Z,99246.41
2018-11-03T18:27:42.807Z,99254.42
2018-11-03T18:29:52.277Z,99256.84
2018-11-03T18:32:02.402Z,99254.32
2018-11-03T18:34:12.309Z,99254.71
2018-11-03T18:36:22.280Z,99252.44
2018-11-03T18:38:32.275Z,99255.59
2018-11-03T18:40:41.836Z,99253.37
2018-11-03T18:42:51.590Z,99254.56
2018-11-03T18:45:00.806Z,99254.30
2018-11-03T18:47:10.724Z,99247.27
2018-11-03T18:49:20.277Z,99253.78
2018-11-03T18:51:31.528Z,99253.14
2018-11-03T18:53:42.784Z,99250.30
2018-11-03T18:55:52.278Z,99249.22
2018-11-03T18:58:01.793Z,99250.23
2018-11-03T19:00:12.661Z,99250.12
2018-11-03T19:02:21.819Z,99253.59
2018-11-03T19:04:31.505Z,99264.86
2018-11-03T19:06:41.279Z,99265.38
2018-11-03T19:08:50.720Z,99256.32
2018-11-03T19:11:00.280Z,99264.41
2018-11-03T19:13:10.314Z,99260.16
2018-11-03T19:15:21.381Z,99263.04
2018-11-03T19:18:14.544Z,99271.09
2018-11-03T19:20:24.309Z,99277.39
2018-11-03T19:22:34.786Z,99267.70
2018-11-03T19:24:45.713Z,99265.00
2018-11-03T19:26:55.282Z,99269.31
2018-11-03T19:29:07.282Z,99262.94
2018-11-03T19:31:17.276Z,99269.02
2018-11-03T19:33:29.110Z,99261.98
2018-11-03T19:35:39.097Z,99268.95
2018-11-03T19:37:49.719Z,99266.17
2018-11-03T19:39:59.277Z,99257.78
2018-11-03T19:42:09.281Z,99269.72
2018-11-03T19:44:18.744Z,99247.97
2018-11-03T19:46:28.380Z,99247.72
2018-11-03T19:48:37.715Z,99258.72
2018-11-03T19:50:47.483Z,99258.73
2018-11-03T19:52:57.388Z,99251.52
2018-11-03T19:55:06.843Z,99256.86
2018-11-03T19:57:16.576Z,99264.95
2018-11-03T19:59:26.280Z,99265.68
2018-11-03T20:01:36.283Z,99263.77
2018-11-03T20:03:45.815Z,99271.47
2018-11-03T20:05:55.532Z,99266.44
2018-11-03T20:08:05.086Z,99271.02
2018-11-03T20:10:15.771Z,99260.28
2018-11-03T20:12:25.283Z,99263.30
2018-11-03T20:14:34.762Z,99249.52
2018-11-03T20:16:44.720Z,99254.75
2018-11-03T20:18:54.772Z,99258.41
2018-11-03T20:21:04.452Z,99254.39
2018-11-03T20:23:13.810Z,99259.55
2018-11-03T20:25:23.770Z,99253.42
2018-11-03T20:27:33.724Z,99260.41
2018-11-03T20:29:43.293Z,99268.81
2018-11-03T20:31:53.378Z,99267.14
2018-11-03T20:34:03.290Z,99265.45
2018-11-03T20:36:13.291Z,99268.92
2018-11-03T20:38:23.711Z,99271.00
2018-11-03T20:40:34.048Z,99269.08
2018-11-03T20:42:43.734Z,99279.63
2018-11-03T20:44:54.054Z,99278.83
2018-11-03T20:47:04.288Z,99270.39
2018-11-03T20:49:14.928Z,99270.34
2018-11-03T20:51:23.292Z,99262.89
2018-11-03T20:53:35.954Z,99261.98
2018-11-03T20:55:51.288Z,99264.53
2018-11-03T20:58:05.400Z,99281.71
2018-11-03T21:00:20.290Z,99281.75
2018-11-03T21:02:31.603Z,99274.12
2018-11-03T21:04:43.285Z,99285.17
2018-11-03T21:06:53.290Z,99292.30
2018-11-03T21:09:02.900Z,99283.40
2018-11-03T21:11:13.847Z,99287.61
2018-11-03T21:13:23.733Z,99274.38
2018-11-03T21:15:35.360Z,99281.01
2018-11-03T21:17:45.791Z,99300.47
2018-11-03T21:19:59.280Z,99307.61
2018-11-03T21:22:15.376Z,99309.43
2018-11-03T21:26:53.825Z,99311.59
2018-11-03T21:29:04.405Z,99318.08
2018-11-03T21:31:17.946Z,99304.19
2018-11-03T21:33:29.294Z,99324.92
2018-11-03T21:35:40.645Z,99326.12
2018-11-03T21:37:51.981Z,99323.83
2018-11-03T21:40:03.290Z,99334.17
2018-11-03T21:42:13.556Z,99331.08
2018-11-03T21:44:24.295Z,99332.23
2018-11-03T21:46:34.088Z,99336.31
2018-11-03T21:50:13.675Z,99322.14
2018-11-03T21:52:23.580Z,99321.78
2018-11-03T21:54:34.107Z,99329.13
2018-11-03T21:56:44.288Z,99323.06
2018-11-03T21:58:58.426Z,99325.81
2018-11-03T22:01:08.879Z,99319.61
2018-11-03T22:03:19.749Z,99317.66
2018-11-03T22:05:29.297Z,99117.01
2018-11-03T22:07:38.837Z,99316.97
2018-11-03T22:09:48.860Z,99315.70
2018-11-03T22:11:58.521Z,99323.37
2018-11-03T22:14:10.716Z,99315.48
2018-11-03T22:16:20.283Z,99316.25
2018-11-03T22:18:32.287Z,99320.91
2018-11-03T22:20:43.743Z,99321.94
2018-11-03T22:22:54.286Z,99326.02
2018-11-03T22:25:03.862Z,99321.50
2018-11-03T22:27:13.296Z,99324.75
2018-11-03T22:29:23.353Z,99335.98
2018-11-03T22:31:32.875Z,99336.55
2018-11-03T22:33:42.727Z,99341.44
2018-11-03T22:35:52.729Z,99338.33
2018-11-03T22:38:03.408Z,99351.63
2018-11-03T22:40:13.528Z,99347.08
2018-11-03T22:42:23.596Z,99353.98
2018-11-03T22:44:32.873Z,99361.52
2018-11-03T22:46:42.773Z,99364.89
2018-11-03T22:48:52.284Z,99371.56
2018-11-03T22:51:02.378Z,99378.11
2018-11-03T22:53:12.290Z,99381.80
2018-11-03T22:55:22.596Z,99382.77
2018-11-03T22:57:31.875Z,99389.07
2018-11-03T23:04:15.907Z,99389.18
2018-11-03T23:06:23.997Z,99390.13
2018-11-03T23:08:33.590Z,99390.20
2018-11-03T23:10:42.871Z,99382.48
2018-11-03T23:12:52.674Z,99396.75
2018-11-03T23:15:02.708Z,99388.34
2018-11-03T23:17:12.288Z,99386.14
2018-11-03T23:19:22.555Z,99391.92
2018-11-03T23:21:31.826Z,99385.00
2018-11-03T23:23:41.407Z,99375.91
2018-11-03T23:25:51.535Z,99375.30
2018-11-03T23:28:01.426Z,99368.34
2018-11-03T23:30:14.373Z,99367.25
